Data for 05/10/2010

Time Sea-Level Adjusted Pressure Absolute Pressure Temperature Relative Humidity Dew Point   
(mb) (inHg) (mb) (inHg) (C) (F) (%) (C) (F)
00:05 1013 29.91 842 24.86 5.8 42.5 57 -1.9 28.5
00:10 1013 29.91 842 24.86 5.7 42.3 58 -1.8 28.7
00:15 1013 29.91 842 24.86 5.8 42.4 58 -1.8 28.8
00:20 1013 29.91 842 24.86 5.8 42.4 59 -1.6 29.1
00:25 1013 29.91 842 24.86 5.7 42.3 59 -1.5 29.2
00:30 1013 29.91 842 24.86 5.7 42.2 60 -1.4 29.4
00:35 1013 29.91 842 24.86 5.7 42.2 60 -1.4 29.5
00:40 1013 29.91 842 24.86 5.7 42.3 60 -1.4 29.6
00:45 1013 29.91 842 24.86 5.7 42.2 60 -1.4 29.4
00:50 1013 29.91 842 24.86 5.6 42.2 61 -1.4 29.5
00:55 1013 29.91 842 24.86 5.6 42 61 -1.3 29.6
01:00 1013 29.91 842 24.86 5.4 41.8 62 -1.3 29.7
01:05 1013 29.91 842 24.86 5.4 41.8 61 -1.4 29.5
01:10 1013 29.91 842 24.86 5.4 41.8 62 -1.3 29.6
01:15 1013 29.91 842 24.86 5.4 41.7 62 -1.3 29.7
01:20 1013 29.91 842 24.86 5.3 41.6 61 -1.6 29.2
01:25 1013 29.91 842 24.86 5.3 41.5 62 -1.3 29.6
01:30 1013 29.91 842 24.86 5.3 41.5 62 -1.3 29.6
01:35 1013 29.91 842 24.86 5.3 41.5 62 -1.4 29.5
01:40 1013 29.91 842 24.86 5.2 41.4 62 -1.4 29.5
01:45 1013 29.91 842 24.86 5 41 65 -1.1 30
01:50 1013 29.91 842 24.86 4.6 40.3 66 -1.2 29.9
01:55 1013 29.91 842 24.86 4.4 39.8 67 -1.2 29.9
02:00 1013 29.91 842 24.86 4.2 39.5 68 -1.2 29.8
02:05 1013 29.91 842 24.86 4.1 39.4 69 -1.1 29.9
02:10 1013 29.91 842 24.86 3.9 39 70 -1.1 30
02:15 1013 29.91 842 24.86 3.7 38.7 70 -1.2 29.8
02:20 1013 29.91 842 24.86 3.7 38.6 70 -1.3 29.6
02:25 1013 29.91 842 24.86 3.7 38.7 69 -1.4 29.4
02:30 1013 29.91 842 24.86 3.8 38.8 69 -1.4 29.4
02:35 1013 29.91 842 24.86 3.8 38.9 67 -1.8 28.8
02:40 1013 29.91 842 24.86 4 39.2 67 -1.7 29
02:45 1013 29.91 842 24.86 4.1 39.3 67 -1.5 29.3
02:50 1013 29.91 842 24.86 4.1 39.3 67 -1.5 29.4
02:55 1012 29.88 842 24.86 4 39.1 67 -1.7 29
03:00 1012 29.88 842 24.86 4 39.1 66 -1.7 28.9
03:05 1012 29.88 842 24.86 4.1 39.3 65 -1.9 28.6
03:10 1012 29.88 842 24.86 4 39.2 66 -1.8 28.7
03:15 1012 29.88 842 24.86 4 39.1 65 -2 28.3
03:20 1012 29.88 842 24.86 4 39.2 65 -2.1 28.3
03:25 1012 29.88 842 24.86 4 39.3 64 -2.1 28.2
03:30 1012 29.88 842 24.86 4 39.2 65 -2.1 28.2
03:35 1012 29.88 842 24.86 3.9 38.9 65 -2.2 28
03:40 1012 29.88 842 24.86 3.8 38.8 65 -2.3 27.9
03:45 1012 29.88 842 24.86 3.7 38.6 65 -2.2 28
03:50 1012 29.88 842 24.86 3.6 38.4 66 -2.3 27.9
03:55 1012 29.88 842 24.86 3.4 38.2 66 -2.2 28
04:00 1012 29.88 842 24.86 3.3 37.9 67 -2.2 28
04:05 1012 29.88 842 24.86 3.3 37.9 67 -2.2 28
04:10 1012 29.88 842 24.86 3.2 37.8 68 -2.2 28
04:15 1012 29.88 842 24.86 3.2 37.7 67 -2.3 27.9
04:20 1012 29.88 842 24.86 3.2 37.7 68 -2.1 28.1
04:25 1012 29.88 842 24.86 3.1 37.6 68 -2.1 28.2
04:30 1012 29.88 842 24.86 3 37.4 69 -2.1 28.3
04:35 1012 29.88 842 24.86 3.1 37.6 68 -2.2 28
04:40 1012 29.88 842 24.86 3.5 38.2 67 -2.1 28.1
04:45 1012 29.88 841 24.83 3.8 38.8 66 -2.1 28.3
04:50 1012 29.88 842 24.86 3.9 38.9 66 -1.9 28.5
04:55 1012 29.88 842 24.86 3.8 38.9 66 -1.9 28.6
05:00 1012 29.88 841 24.83 3.8 38.8 67 -1.9 28.7
05:05 1012 29.88 841 24.83 3.8 38.8 67 -1.8 28.7
05:10 1012 29.88 841 24.83 3.8 38.9 67 -1.7 28.9
05:15 1012 29.88 841 24.83 3.9 39 67 -1.7 29
05:20 1012 29.88 841 24.83 3.8 38.9 68 -1.6 29.2
05:25 1012 29.88 841 24.83 3.9 39 68 -1.5 29.2
05:30 1012 29.88 841 24.83 3.8 38.9 68 -1.5 29.3
05:35 1012 29.88 841 24.83 3.7 38.7 69 -1.5 29.4
05:40 1012 29.88 841 24.83 3.7 38.6 69 -1.4 29.5
05:45 1012 29.88 841 24.83 3 37.5 73 -1.4 29.5
05:50 1012 29.88 841 24.83 2.6 36.7 73 -1.8 28.8
05:55 1012 29.88 841 24.83 2.5 36.6 72 -2.1 28.3
06:00 1012 29.88 841 24.83 2.6 36.8 66 -3.1 26.4
06:05 1012 29.88 841 24.83 2.8 37.1 66 -2.9 26.7
06:10 1012 29.88 841 24.83 2.8 37 62 -3.8 25.2
06:15 1012 29.88 841 24.83 2.7 36.8 63 -3.7 25.3
06:20 1012 29.88 841 24.83 2.6 36.7 63 -3.7 25.3
06:25 1012 29.88 841 24.83 2.6 36.6 63 -3.8 25.1
06:30 1012 29.88 841 24.83 2.5 36.5 62 -4 24.9
06:35 1012 29.88 841 24.83 2.3 36.1 65 -3.7 25.4
06:40 1012 29.88 841 24.83 2.2 36 64 -3.9 25.1
06:45 1012 29.88 841 24.83 2.2 36 63 -4 24.7
06:50 1012 29.88 841 24.83 2.4 36.3 61 -4.4 24.1
06:55 1012 29.88 842 24.86 2.4 36.3 61 -4.4 24
07:00 1012 29.88 842 24.86 2.4 36.3 59 -4.7 23.5
07:05 1013 29.91 842 24.86 2.5 36.5 59 -4.7 23.5
07:10 1013 29.91 842 24.86 2.5 36.6 60 -4.4 24.1
07:15 1013 29.91 842 24.86 2.7 36.9 59 -4.5 23.9
07:20 1013 29.91 842 24.86 3 37.4 58 -4.4 24.1
07:25 1013 29.91 842 24.86 3.2 37.8 56 -4.8 23.4
07:30 1013 29.91 842 24.86 3.5 38.4 58 -4 24.9
07:35 1013 29.91 842 24.86 3.6 38.4 57 -4.2 24.5
07:40 1013 29.91 842 24.86 3.4 38.2 57 -4.3 24.2
07:45 1013 29.91 842 24.86 3.3 38 57 -4.4 24.1
07:50 1013 29.91 842 24.86 3.3 37.9 58 -4.3 24.3
07:55 1013 29.91 842 24.86 3.8 38.9 56 -4.1 24.6
08:00 1013 29.91 842 24.86 4.2 39.6 58 -3.2 26.3
08:05 1013 29.91 842 24.86 4.3 39.7 57 -3.5 25.7
08:10 1013 29.91 842 24.86 4.9 40.8 54 -3.6 25.5
08:15 1012 29.88 842 24.86 5.4 41.7 57 -2.4 27.6
08:20 1012 29.88 842 24.86 5.5 41.9 58 -2.2 28
08:25 1012 29.88 842 24.86 5.8 42.5 57 -2.1 28.2
08:30 1012 29.88 842 24.86 6.2 43.2 57 -1.7 28.9
08:35 1012 29.88 842 24.86 5.7 42.3 57 -2 28.3
08:40 1013 29.91 842 24.86 5.1 41.3 59 -2.3 27.8
08:45 1013 29.91 842 24.86 5.4 41.7 55 -2.9 26.8
08:50 1013 29.91 842 24.86 5.8 42.5 54 -2.8 26.9
08:55 1013 29.91 842 24.86 6.2 43.1 52 -2.8 26.9
09:00 1013 29.91 842 24.86 6.7 44.1 52 -2.5 27.5
09:05 1013 29.91 842 24.86 6.6 43.9 53 -2.4 27.7
09:10 1012 29.88 842 24.86 6.9 44.5 53 -2 28.4
09:15 1012 29.88 842 24.86 7 44.5 52 -2.3 27.9
09:20 1012 29.88 842 24.86 7.2 45 51 -2.1 28.2
09:25 1012 29.88 842 24.86 7 44.6 52 -2.3 27.8
09:30 1012 29.88 842 24.86 7.5 45.5 53 -1.4 29.4
09:35 1012 29.88 842 24.86 7.3 45.2 55 -1.2 29.8
09:40 1012 29.88 842 24.86 7.6 45.6 54 -1.1 30.1
09:45 1012 29.88 842 24.86 7.7 45.8 54 -1.1 30
09:50 1012 29.88 842 24.86 7.9 46.1 52 -1.3 29.7
09:55 1012 29.88 842 24.86 7.8 46 53 -1.1 30
10:00 1012 29.88 842 24.86 7.8 46 53 -1.3 29.7
10:05 1012 29.88 842 24.86 8.1 46.5 52 -1.1 30
10:10 1012 29.88 842 24.86 8.3 47 54 -0.5 31.1
10:15 1012 29.88 842 24.86 8.4 47.1 53 -0.7 30.8
10:20 1012 29.88 841 24.83 8.5 47.2 51 -0.9 30.3
10:25 1012 29.88 842 24.86 8.9 48 51 -0.6 31
10:30 1012 29.88 841 24.83 8.7 47.6 52 -0.6 31
10:35 1012 29.88 841 24.83 8.4 47 52 -0.8 30.6
10:40 1012 29.88 841 24.83 8.6 47.4 54 -0.3 31.5
10:45 1012 29.88 841 24.83 8.2 46.8 54 -0.5 31.2
10:50 1012 29.88 841 24.83 8.4 47 55 -0.1 31.8
10:55 1012 29.88 841 24.83 8.9 47.9 54 -0 31.9
11:00 1012 29.88 841 24.83 8.9 47.9 52 -0.3 31.4
11:05 1012 29.88 841 24.83 8.6 47.4 53 -0.4 31.3
11:10 1012 29.88 841 24.83 8.5 47.4 54 -0.1 31.8
11:15 1012 29.88 841 24.83 8.5 47.3 53 -0.5 31.2
11:20 1012 29.88 841 24.83 8.8 47.8 51 -0.6 30.9
11:25 1012 29.88 841 24.83 9.2 48.6 51 -0.3 31.5
11:30 1012 29.88 841 24.83 9 48.1 52 -0.3 31.4
11:35 1012 29.88 841 24.83 9.3 48.7 52 -0 32
11:40 1012 29.88 841 24.83 9.2 48.5 52 -0 32
11:45 1012 29.88 841 24.83 9.3 48.7 52 0.1 32.1
11:50 1012 29.88 841 24.83 9.2 48.6 53 0.2 32.4
11:55 1012 29.88 841 24.83 9.2 48.6 51 -0.2 31.6
12:00 1012 29.88 841 24.83 9.3 48.7 52 -0.1 31.7
12:05 1012 29.88 841 24.83 9.3 48.8 53 0.2 32.3
12:10 1012 29.88 841 24.83 9 48.2 53 -0.1 31.8
12:15 1012 29.88 841 24.83 9.2 48.6 52 0 32.1
12:20 1012 29.88 841 24.83 9.1 48.4 53 0.2 32.3
12:25 1012 29.88 841 24.83 8.8 47.8 55 0.2 32.3
12:30 1012 29.88 841 24.83 9 48.1 55 0.4 32.7
12:35 1012 29.88 841 24.83 9.6 49.2 54 0.7 33.2
12:40 1012 29.88 841 24.83 9.1 48.4 56 0.8 33.4
12:45 1012 29.88 841 24.83 9.2 48.6 54 0.4 32.8
12:50 1012 29.88 841 24.83 8.8 47.9 57 0.8 33.4
12:55 1012 29.88 841 24.83 9.1 48.3 56 0.7 33.2
13:00 1012 29.88 841 24.83 9.2 48.6 56 0.9 33.6
13:05 1012 29.88 841 24.83 8.7 47.6 57 0.7 33.2
13:10 1012 29.88 841 24.83 8.8 47.9 57 0.7 33.2
13:15 1012 29.88 841 24.83 8.7 47.6 57 0.7 33.3
13:20 1012 29.88 841 24.83 9 48.3 55 0.6 33.1
13:25 1012 29.88 841 24.83 8.4 47 59 0.8 33.4
13:30 1012 29.88 841 24.83 8.6 47.6 59 1 33.8
13:35 1012 29.88 841 24.83 8.9 48 56 0.7 33.2
13:40 1012 29.88 841 24.83 8.6 47.4 56 0.4 32.7
13:45 1012 29.88 841 24.83 8.9 48 56 0.7 33.3
13:50 1012 29.88 841 24.83 9.1 48.4 55 0.7 33.2
13:55 1012 29.88 841 24.83 9.4 48.9 55 0.7 33.3
14:00 1012 29.88 841 24.83 9.4 49 52 0.1 32.2
14:05 1012 29.88 841 24.83 9.4 48.9 52 0.1 32.3
14:10 1012 29.88 841 24.83 9.9 49.9 48 -0.4 31.2
14:15 1011 29.85 841 24.83 10.3 50.5 48 -0.2 31.6
14:20 1012 29.88 841 24.83 10 50 49 -0.1 31.8
14:25 1012 29.88 841 24.83 9.8 49.7 50 -0.1 31.9
14:30 1012 29.88 841 24.83 10 50 49 -0.3 31.5
14:35 1012 29.88 841 24.83 10.2 50.3 50 0.3 32.5
14:40 1012 29.88 841 24.83 10.3 50.5 49 0.2 32.3
14:45 1012 29.88 841 24.83 10.2 50.3 50 0.4 32.7
14:50 1011 29.85 841 24.83 10 49.9 50 0.1 32.2
14:55 1012 29.88 841 24.83 10.4 50.7 46 -0.7 30.7
15:00 1012 29.88 841 24.83 10 49.9 51 0.2 32.4
15:05 1012 29.88 841 24.83 10.1 50.2 50 0.3 32.6
15:10 1011 29.85 841 24.83 10.1 50.1 49 -0.1 31.9
15:15 1011 29.85 841 24.83 10.2 50.3 50 0.2 32.3
15:20 1011 29.85 841 24.83 10.2 50.3 49 -0 32
15:25 1011 29.85 841 24.83 9.8 49.6 52 0.4 32.7
15:30 1011 29.85 841 24.83 9.7 49.5 50 -0.2 31.6
15:35 1011 29.85 841 24.83 9.9 49.8 50 0 32.1
15:40 1011 29.85 841 24.83 10.3 50.6 50 0.4 32.8
15:45 1011 29.85 841 24.83 10.3 50.6 49 0.1 32.2
15:50 1011 29.85 841 24.83 10.1 50.2 48 -0.2 31.6
15:55 1011 29.85 841 24.83 9.8 49.6 48 -0.7 30.7
16:00 1011 29.85 841 24.83 9.8 49.7 49 -0.5 31.1
16:05 1011 29.85 841 24.83 9.7 49.4 49 -0.4 31.2
16:10 1011 29.85 840 24.81 9.5 49.1 49 -0.6 30.9
16:15 1011 29.85 840 24.81 9.4 48.9 51 -0.3 31.4
16:20 1011 29.85 840 24.81 9.3 48.8 50 -0.5 31.2
16:25 1011 29.85 840 24.81 9.3 48.7 51 -0.3 31.4
16:30 1011 29.85 841 24.83 9.2 48.6 51 -0.4 31.2
16:35 1011 29.85 841 24.83 9.5 49.2 51 -0.1 31.7
16:40 1011 29.85 840 24.81 9.4 48.9 50 -0.4 31.2
16:45 1011 29.85 841 24.83 9.5 49 50 -0.4 31.3
16:50 1011 29.85 841 24.83 9.5 49 49 -0.6 30.9
16:55 1011 29.85 841 24.83 9.4 49 49 -0.7 30.8
17:00 1011 29.85 841 24.83 9.4 48.9 49 -0.7 30.7
17:05 1011 29.85 841 24.83 9.4 48.9 49 -0.9 30.4
17:10 1012 29.88 841 24.83 9.3 48.8 49 -0.8 30.6
17:15 1012 29.88 841 24.83 9.2 48.6 50 -0.7 30.8
17:20 1012 29.88 841 24.83 9.3 48.8 49 -0.9 30.4
17:25 1012 29.88 841 24.83 9.4 48.9 48 -1 30.1
17:30 1012 29.88 841 24.83 9.3 48.8 46 -1.5 29.2
17:35 1012 29.88 841 24.83 9.2 48.6 47 -1.5 29.2
17:40 1011 29.85 841 24.83 9.1 48.4 47 -1.5 29.2
17:45 1012 29.88 841 24.83 9.1 48.4 48 -1.4 29.4
17:50 1012 29.88 841 24.83 9 48.3 48 -1.3 29.7
17:55 1011 29.85 841 24.83 9 48.2 50 -0.9 30.3
18:00 1012 29.88 841 24.83 8.9 48 51 -0.7 30.7
18:05 1012 29.88 841 24.83 8.8 47.8 50 -0.9 30.3
18:10 1012 29.88 841 24.83 8.6 47.5 51 -0.9 30.4
18:15 1012 29.88 841 24.83 8.6 47.4 52 -0.7 30.8
18:20 1012 29.88 841 24.83 8.5 47.3 53 -0.6 31
18:25 1012 29.88 841 24.83 8.5 47.2 54 -0.3 31.4
18:30 1012 29.88 841 24.83 8.4 47.1 54 -0.3 31.4
18:35 1012 29.88 841 24.83 8.4 47.1 55 0 32
18:40 1012 29.88 841 24.83 8.3 46.9 56 0.2 32.3
18:45 1012 29.88 841 24.83 8.3 46.9 56 0.1 32.2
18:50 1012 29.88 841 24.83 8.2 46.8 57 0.1 32.2
18:55 1012 29.88 841 24.83 8.1 46.5 58 0.4 32.7
19:00 1012 29.88 841 24.83 8 46.4 58 0.4 32.6
19:05 1012 29.88 841 24.83 7.9 46.3 59 0.5 32.9
19:10 1012 29.88 841 24.83 7.9 46.2 59 0.5 32.9
19:15 1012 29.88 841 24.83 7.9 46.1 58 0.2 32.3
19:20 1012 29.88 841 24.83 7.9 46.1 57 -0.1 31.9
19:25 1012 29.88 841 24.83 7.8 46.1 57 -0.2 31.7
19:30 1012 29.88 841 24.83 7.8 46 57 -0.1 31.9
19:35 1012 29.88 841 24.83 7.8 46 57 -0.2 31.6
19:40 1012 29.88 841 24.83 7.8 46 56 -0.5 31.1
19:45 1012 29.88 841 24.83 7.7 45.9 55 -0.8 30.5
19:50 1012 29.88 841 24.83 7.7 45.9 53 -1.2 29.8
19:55 1012 29.88 841 24.83 7.7 45.9 53 -1.2 29.8
20:00 1012 29.88 841 24.83 7.6 45.8 54 -1.1 29.9
20:05 1012 29.88 841 24.83 7.6 45.7 52 -1.5 29.3
20:10 1012 29.88 841 24.83 7.6 45.7 52 -1.6 29.2
20:15 1012 29.88 841 24.83 7.6 45.6 51 -1.9 28.7
20:20 1012 29.88 841 24.83 7.5 45.5 52 -1.6 29.1
20:25 1012 29.88 841 24.83 7.5 45.4 52 -1.7 28.9
20:30 1012 29.88 841 24.83 7.4 45.4 52 -1.8 28.7
20:35 1012 29.88 841 24.83 7.4 45.3 52 -1.8 28.8
20:40 1012 29.88 841 24.83 7.4 45.2 51 -2.2 28.1
20:45 1012 29.88 841 24.83 7.3 45.2 52 -2 28.5
20:50 1012 29.88 842 24.86 7.3 45.1 52 -1.8 28.7
20:55 1012 29.88 842 24.86 7.2 45 52 -2.1 28.3
21:00 1012 29.88 842 24.86 7.2 45 52 -1.8 28.7
21:05 1013 29.91 842 24.86 7.2 44.9 53 -1.8 28.8
21:10 1013 29.91 842 24.86 7.1 44.8 53 -1.7 28.9
21:15 1013 29.91 842 24.86 7.1 44.7 54 -1.5 29.3
21:20 1013 29.91 842 24.86 7 44.6 55 -1.3 29.6
21:25 1013 29.91 842 24.86 6.9 44.5 56 -1.2 29.8
21:30 1013 29.91 842 24.86 6.9 44.4 57 -1.1 30
21:35 1013 29.91 842 24.86 6.8 44.3 58 -0.9 30.4
21:40 1013 29.91 842 24.86 6.7 44.1 58 -0.9 30.4
21:45 1013 29.91 842 24.86 6.7 44.1 59 -0.8 30.6
21:50 1013 29.91 842 24.86 6.7 44.1 59 -0.6 30.9
21:55 1013 29.91 842 24.86 6.6 43.9 60 -0.6 31
22:00 1013 29.91 842 24.86 6.6 43.9 61 -0.5 31.2
22:05 1013 29.91 842 24.86 6.5 43.7 61 -0.4 31.2
22:10 1013 29.91 842 24.86 6.5 43.6 62 -0.3 31.4
22:15 1013 29.91 842 24.86 6.5 43.6 61 -0.5 31.1
22:20 1013 29.91 842 24.86 6.5 43.7 61 -0.4 31.3
22:25 1013 29.91 842 24.86 6.4 43.6 61 -0.5 31.1
22:30 1013 29.91 842 24.86 6.4 43.5 61 -0.5 31
22:35 1013 29.91 842 24.86 6.4 43.5 61 -0.5 31
22:40 1013 29.91 842 24.86 6.4 43.5 61 -0.5 31
22:45 1013 29.91 842 24.86 6.3 43.3 61 -0.6 31
22:50 1013 29.91 842 24.86 6.3 43.3 62 -0.5 31.2
22:55 1013 29.91 842 24.86 6.2 43.2 62 -0.5 31.2
23:00 1013 29.91 842 24.86 6.2 43.1 61 -0.7 30.7
23:05 1013 29.91 842 24.86 6.2 43.2 62 -0.6 30.9
23:10 1013 29.91 842 24.86 6.2 43.1 62 -0.6 30.9
23:15 1013 29.91 842 24.86 6.1 43 62 -0.5 31.1
23:20 1013 29.91 842 24.86 6 42.9 63 -0.5 31.1
23:25 1013 29.91 842 24.86 6 42.8 62 -0.7 30.7
23:30 1013 29.91 842 24.86 6 42.8 63 -0.6 31
23:35 1013 29.91 842 24.86 6 42.7 63 -0.6 31
23:40 1013 29.91 842 24.86 5.9 42.6 63 -0.6 30.8
23:45 1013 29.91 842 24.86 5.9 42.6 62 -0.7 30.7
23:50 1013 29.91 842 24.86 5.9 42.7 62 -0.8 30.5
23:55 1013 29.91 842 24.86 5.9 42.6 62 -0.8 30.5
24:00 1013 29.91 842 24.86 5.9 42.6 62 -0.8 30.6